createdAt,value
2023-03-06T00:00:50.339Z,2.20
2023-03-06T00:03:17.224Z,2.20
2023-03-06T00:05:44.138Z,2.20
2023-03-06T00:08:11.425Z,2.20
2023-03-06T00:10:38.656Z,2.20
2023-03-06T00:13:08.744Z,2.20
2023-03-06T00:15:35.470Z,2.20
2023-03-06T00:18:03.986Z,2.20
2023-03-06T00:20:30.722Z,2.20
2023-03-06T00:22:57.606Z,2.20
2023-03-06T00:25:25.315Z,2.20
2023-03-06T00:27:52.108Z,2.20
2023-03-06T00:30:22.789Z,2.20
2023-03-06T00:32:50.095Z,2.20
2023-03-06T00:35:17.283Z,2.20
2023-03-06T00:37:44.572Z,2.20
2023-03-06T00:40:14.093Z,2.20
2023-03-06T00:42:41.224Z,2.10
2023-03-06T00:45:09.021Z,2.20
2023-03-06T00:47:37.395Z,2.20
2023-03-06T00:50:04.782Z,2.20
2023-03-06T00:52:32.141Z,2.20
2023-03-06T00:54:58.970Z,2.20
2023-03-06T00:57:25.927Z,2.20
2023-03-06T00:59:52.646Z,2.20
2023-03-06T01:02:19.528Z,2.20
2023-03-06T01:04:47.738Z,2.10
2023-03-06T01:07:14.484Z,2.10
2023-03-06T01:09:41.357Z,2.10
2023-03-06T01:12:09.067Z,2.10
2023-03-06T01:14:35.966Z,2.10
2023-03-06T01:17:02.684Z,2.10
2023-03-06T01:19:29.406Z,2.10
2023-03-06T01:21:57.482Z,2.20
2023-03-06T01:24:24.582Z,2.20
2023-03-06T01:26:51.395Z,2.10
2023-03-06T01:29:18.149Z,2.10
2023-03-06T01:31:44.915Z,2.10
2023-03-06T01:34:11.723Z,2.10
2023-03-06T01:36:38.457Z,2.10
2023-03-06T01:39:06.506Z,2.10
2023-03-06T01:41:33.289Z,2.10
2023-03-06T01:44:00.286Z,2.10
2023-03-06T01:46:36.148Z,2.10
2023-03-06T01:49:07.719Z,2.10
2023-03-06T01:51:38.235Z,2.10
2023-03-06T01:54:11.230Z,2.10
2023-03-06T01:56:40.628Z,2.10
2023-03-06T01:59:07.918Z,2.10
2023-03-06T02:01:38.073Z,2.10
2023-03-06T02:04:05.638Z,2.10
2023-03-06T02:06:33.524Z,2.10
2023-03-06T02:09:00.332Z,2.10
2023-03-06T02:11:28.697Z,2.10
2023-03-06T02:13:55.740Z,2.10
2023-03-06T02:16:26.222Z,2.10
2023-03-06T02:18:53.645Z,2.10
2023-03-06T02:21:23.551Z,2.10
2023-03-06T02:24:07.016Z,2.00
2023-03-06T02:26:37.478Z,2.10
2023-03-06T02:29:04.613Z,2.10
2023-03-06T02:31:32.920Z,2.10
2023-03-06T02:34:05.659Z,2.10
2023-03-06T02:36:35.197Z,2.10
2023-03-06T02:39:02.879Z,2.10
2023-03-06T02:41:29.745Z,2.10
2023-03-06T02:43:57.885Z,2.10
2023-03-06T02:46:24.674Z,2.10
2023-03-06T02:48:51.596Z,2.10
2023-03-06T02:51:18.312Z,2.00
2023-03-06T02:53:45.087Z,2.10
2023-03-06T02:56:11.875Z,2.10
2023-03-06T02:58:38.594Z,2.10
2023-03-06T03:01:06.955Z,2.10
2023-03-06T03:03:33.844Z,2.00
2023-03-06T03:06:00.740Z,2.10
2023-03-06T03:08:28.288Z,2.00
2023-03-06T03:10:55.663Z,2.00
2023-03-06T03:13:22.649Z,2.00
2023-03-06T03:15:58.341Z,2.00
2023-03-06T03:18:26.777Z,2.00
2023-03-06T03:20:53.598Z,2.00
2023-03-06T03:23:20.751Z,2.00
2023-03-06T03:25:47.516Z,2.00
2023-03-06T03:28:14.519Z,2.00
2023-03-06T03:30:42.118Z,2.00
2023-03-06T03:33:09.114Z,2.00
2023-03-06T03:35:37.338Z,2.00
2023-03-06T03:38:04.262Z,2.00
2023-03-06T03:40:31.114Z,2.00
2023-03-06T03:42:57.868Z,2.00
2023-03-06T03:45:24.638Z,2.00
2023-03-06T03:47:51.526Z,2.00
2023-03-06T03:50:18.940Z,2.00
2023-03-06T03:52:47.096Z,2.00
2023-03-06T03:55:13.901Z,2.00
2023-03-06T03:57:40.787Z,2.00
2023-03-06T04:00:09.024Z,1.90
2023-03-06T04:02:35.757Z,1.90
2023-03-06T04:05:02.596Z,2.00
2023-03-06T04:07:29.423Z,2.00
2023-03-06T04:09:57.510Z,1.90
2023-03-06T04:12:24.249Z,1.90
2023-03-06T04:14:51.090Z,1.90
2023-03-06T04:17:17.862Z,2.00
2023-03-06T04:19:44.648Z,2.00
2023-03-06T04:22:11.410Z,1.90
2023-03-06T04:24:38.119Z,1.90
2023-03-06T04:27:06.366Z,1.90
2023-03-06T04:29:33.093Z,2.00
2023-03-06T04:31:59.971Z,2.00
2023-03-06T04:34:26.723Z,1.90
2023-03-06T04:36:53.457Z,1.90
2023-03-06T04:39:20.204Z,1.90
2023-03-06T04:41:46.937Z,1.90
2023-03-06T04:44:15.251Z,1.90
2023-03-06T04:46:42.017Z,1.90
2023-03-06T04:49:08.945Z,1.90
2023-03-06T04:51:35.682Z,1.90
2023-03-06T04:54:02.487Z,1.90
2023-03-06T04:56:29.311Z,1.90
2023-03-06T04:58:56.125Z,1.90
2023-03-06T05:01:24.282Z,1.90
2023-03-06T05:03:51.099Z,1.90
2023-03-06T05:06:17.954Z,1.90
2023-03-06T05:08:44.703Z,1.90
2023-03-06T05:11:11.499Z,1.90
2023-03-06T05:13:38.249Z,1.90
2023-03-06T05:16:06.677Z,1.90
2023-03-06T05:18:35.545Z,1.90
2023-03-06T05:21:03.175Z,1.90
2023-03-06T05:23:31.767Z,1.90
2023-03-06T05:25:58.852Z,1.90
2023-03-06T05:28:26.032Z,1.90
2023-03-06T05:30:53.026Z,1.90
2023-03-06T05:33:19.802Z,1.90
2023-03-06T05:35:48.880Z,1.90
2023-03-06T05:38:16.164Z,1.90
2023-03-06T05:40:43.841Z,1.90
2023-03-06T05:43:11.288Z,1.90
2023-03-06T05:45:38.685Z,1.90
2023-03-06T05:48:06.083Z,1.90
2023-03-06T05:50:32.874Z,1.90
2023-03-06T05:53:01.686Z,1.80
2023-03-06T05:55:28.566Z,1.80
2023-03-06T05:57:55.434Z,1.90
2023-03-06T06:00:23.101Z,1.90
2023-03-06T06:02:49.871Z,1.90
2023-03-06T06:05:16.838Z,1.90
2023-03-06T06:07:43.571Z,1.90
2023-03-06T06:10:12.605Z,1.90
2023-03-06T06:12:39.488Z,1.90
2023-03-06T06:15:09.185Z,1.90
2023-03-06T06:17:35.987Z,1.90
2023-03-06T06:20:02.984Z,1.90
2023-03-06T06:22:29.707Z,1.90
2023-03-06T06:24:56.646Z,2.00
2023-03-06T06:27:24.723Z,2.00
2023-03-06T06:29:51.492Z,2.00
2023-03-06T06:32:18.303Z,2.00
2023-03-06T06:34:45.026Z,2.00
2023-03-06T06:37:11.894Z,2.00
2023-03-06T06:39:38.638Z,2.00
2023-03-06T06:42:28.009Z,2.00
2023-03-06T06:44:53.825Z,1.90
2023-03-06T06:47:23.935Z,1.90
2023-03-06T06:49:52.210Z,1.90
2023-03-06T06:52:19.041Z,1.90
2023-03-06T06:54:45.946Z,1.90
2023-03-06T06:57:12.806Z,1.90
2023-03-06T06:59:39.546Z,1.90
2023-03-06T07:02:08.022Z,1.90
2023-03-06T07:04:34.772Z,1.90
2023-03-06T07:07:01.502Z,1.90
2023-03-06T07:09:28.332Z,1.90
2023-03-06T07:11:55.062Z,1.90
2023-03-06T07:14:21.800Z,1.90
2023-03-06T07:16:48.534Z,1.90
2023-03-06T07:19:16.616Z,2.00
2023-03-06T07:21:43.380Z,2.00
2023-03-06T07:24:10.106Z,2.00
2023-03-06T07:26:36.993Z,2.10
2023-03-06T07:29:04.681Z,2.10
2023-03-06T07:31:31.670Z,2.10
2023-03-06T07:33:58.591Z,2.10
2023-03-06T07:36:26.767Z,2.10
2023-03-06T07:38:53.502Z,2.10
2023-03-06T07:41:22.495Z,2.10
2023-03-06T07:43:49.920Z,2.10
2023-03-06T07:46:16.752Z,2.10
2023-03-06T07:48:44.713Z,2.10
2023-03-06T07:51:15.360Z,2.10
2023-03-06T07:53:43.874Z,2.20
2023-03-06T07:56:11.754Z,2.20
2023-03-06T07:58:40.202Z,2.20
2023-03-06T08:01:09.093Z,2.20
2023-03-06T08:03:36.496Z,2.20
2023-03-06T08:06:08.287Z,2.20
2023-03-06T08:08:35.326Z,2.20
2023-03-06T08:11:03.558Z,2.20
2023-03-06T08:13:30.313Z,2.20
2023-03-06T08:15:57.198Z,2.30
2023-03-06T08:18:23.935Z,2.30
2023-03-06T08:20:50.673Z,2.30
2023-03-06T08:23:17.457Z,2.30
2023-03-06T08:25:44.320Z,2.30
2023-03-06T08:28:12.440Z,2.20
2023-03-06T08:30:39.172Z,2.30
2023-03-06T08:33:05.943Z,2.30
2023-03-06T08:35:32.826Z,2.30
2023-03-06T08:37:59.615Z,2.30
2023-03-06T08:40:26.419Z,2.30
2023-03-06T08:42:53.174Z,2.30
2023-03-06T08:45:21.365Z,2.30
2023-03-06T08:47:48.103Z,2.30
2023-03-06T08:50:14.826Z,2.30
2023-03-06T08:52:41.676Z,2.30
2023-03-06T08:55:09.330Z,2.30
2023-03-06T08:57:36.086Z,2.30
2023-03-06T09:00:03.277Z,2.40
2023-03-06T09:02:32.098Z,2.40
2023-03-06T09:04:58.916Z,2.40
2023-03-06T09:07:25.683Z,2.30
2023-03-06T09:09:55.933Z,2.40
2023-03-06T09:12:22.869Z,2.40
2023-03-06T09:14:49.855Z,2.40
2023-03-06T09:17:16.777Z,2.40
2023-03-06T09:19:44.903Z,2.40
2023-03-06T09:22:11.900Z,2.40
2023-03-06T09:24:38.641Z,2.40
2023-03-06T09:27:05.452Z,2.40
2023-03-06T09:29:32.206Z,2.40
2023-03-06T09:31:59.070Z,2.40
2023-03-06T09:34:25.951Z,2.40
2023-03-06T09:36:57.182Z,2.40
2023-03-06T09:39:24.936Z,2.40
2023-03-06T09:41:51.967Z,2.40
2023-03-06T09:44:21.498Z,2.50
2023-03-06T09:47:06.928Z,2.50
2023-03-06T09:49:42.891Z,2.50
2023-03-06T09:52:29.375Z,2.50
2023-03-06T09:54:59.697Z,2.50
2023-03-06T09:57:28.969Z,2.50
2023-03-06T09:59:58.881Z,2.50
2023-03-06T10:02:31.226Z,2.50
2023-03-06T10:05:01.774Z,2.50
2023-03-06T10:07:43.634Z,2.50
2023-03-06T10:10:17.632Z,2.50
2023-03-06T10:12:55.749Z,2.50
2023-03-06T10:18:38.028Z,2.60
2023-03-06T10:21:55.378Z,2.50
2023-03-06T10:24:42.225Z,2.60
2023-03-06T10:27:21.465Z,2.60
2023-03-06T10:30:02.676Z,2.60
2023-03-06T10:32:48.322Z,2.60
2023-03-06T10:35:19.226Z,2.60
2023-03-06T10:37:46.119Z,2.60
2023-03-06T10:40:18.053Z,2.60
2023-03-06T10:42:44.979Z,2.60
2023-03-06T10:48:10.757Z,2.60
2023-03-06T10:50:37.753Z,2.60
2023-03-06T10:53:06.170Z,2.60
2023-03-06T10:55:35.644Z,2.60
2023-03-06T10:58:22.008Z,2.60
2023-03-06T11:01:01.153Z,2.60
2023-03-06T11:03:28.237Z,2.60
2023-03-06T11:06:05.419Z,2.60
2023-03-06T11:08:33.210Z,2.60
2023-03-06T11:11:03.899Z,2.60
2023-03-06T11:13:32.861Z,2.60
2023-03-06T11:16:05.628Z,2.70
2023-03-06T11:18:37.678Z,2.70
2023-03-06T11:21:22.996Z,2.70
2023-03-06T11:23:51.131Z,2.70
2023-03-06T11:26:41.209Z,2.70
2023-03-06T11:29:20.367Z,2.70
2023-03-06T11:31:51.475Z,2.70
2023-03-06T11:34:24.477Z,2.70
2023-03-06T11:36:56.856Z,2.80
2023-03-06T11:39:32.123Z,2.70
2023-03-06T11:42:06.331Z,2.80
2023-03-06T11:44:43.590Z,2.80
2023-03-06T11:47:17.229Z,2.80
2023-03-06T11:49:56.033Z,2.80
2023-03-06T11:52:32.583Z,2.80
2023-03-06T11:55:03.296Z,2.80
2023-03-06T11:57:39.569Z,2.80
2023-03-06T12:00:22.300Z,2.80
2023-03-06T12:03:20.142Z,2.80
2023-03-06T12:05:54.192Z,2.80
2023-03-06T12:08:27.520Z,2.80
2023-03-06T12:10:59.908Z,2.80
2023-03-06T12:13:46.588Z,2.80
2023-03-06T12:16:30.852Z,2.80
2023-03-06T12:19:01.954Z,2.80
2023-03-06T12:21:37.416Z,2.80
2023-03-06T12:24:29.179Z,2.80
2023-03-06T12:27:03.059Z,2.90
2023-03-06T12:29:50.618Z,2.90
2023-03-06T12:32:30.486Z,2.90
2023-03-06T12:35:14.893Z,2.90
2023-03-06T12:37:51.809Z,2.90
2023-03-06T12:40:39.510Z,2.90
2023-03-06T12:43:36.970Z,2.90
2023-03-06T12:46:11.333Z,2.90
2023-03-06T12:48:41.743Z,2.90
2023-03-06T12:51:13.553Z,3.00
2023-03-06T12:53:40.924Z,3.00
2023-03-06T12:56:08.600Z,3.00
2023-03-06T12:58:46.188Z,3.00
2023-03-06T13:01:28.912Z,3.00
2023-03-06T13:04:13.048Z,3.00
2023-03-06T13:07:03.936Z,3.00
2023-03-06T13:09:36.794Z,3.10
2023-03-06T13:12:17.268Z,3.10
2023-03-06T13:14:54.758Z,3.10
2023-03-06T13:17:27.799Z,3.10
2023-03-06T13:20:42.622Z,3.10
2023-03-06T13:24:03.264Z,3.10
2023-03-06T13:26:52.907Z,3.20
2023-03-06T13:29:53.186Z,3.20
2023-03-06T13:32:30.478Z,3.20
2023-03-06T13:34:57.564Z,3.20
2023-03-06T13:37:48.635Z,3.20
2023-03-06T13:40:31.905Z,3.20
2023-03-06T13:43:20.657Z,3.20
2023-03-06T13:45:48.440Z,3.30
2023-03-06T13:48:43.151Z,3.30
2023-03-06T13:51:20.349Z,3.30
2023-03-06T13:54:09.247Z,3.30
2023-03-06T13:56:58.471Z,3.30
2023-03-06T14:00:08.965Z,3.30
2023-03-06T14:03:18.505Z,3.30
2023-03-06T14:05:47.017Z,3.40
2023-03-06T14:08:17.426Z,3.30
2023-03-06T14:10:45.733Z,3.30
2023-03-06T14:13:22.029Z,3.40
2023-03-06T14:15:50.844Z,3.40
2023-03-06T14:18:20.739Z,3.30
2023-03-06T14:20:51.374Z,3.40
2023-03-06T14:23:30.068Z,3.40
2023-03-06T14:26:06.147Z,3.40
2023-03-06T14:28:35.418Z,3.40
2023-03-06T14:31:05.103Z,3.40
2023-03-06T14:33:36.719Z,3.40
2023-03-06T14:36:08.291Z,3.40
2023-03-06T14:38:39.683Z,3.40
2023-03-06T14:41:06.595Z,3.40
2023-03-06T14:43:34.794Z,3.40
2023-03-06T14:46:03.775Z,3.40
2023-03-06T14:48:40.020Z,3.40
2023-03-06T14:51:13.019Z,3.50
2023-03-06T14:53:40.204Z,3.50
2023-03-06T14:56:07.583Z,3.50
2023-03-06T14:58:39.280Z,3.50
2023-03-06T15:01:08.865Z,3.50
2023-03-06T15:03:44.232Z,3.50
2023-03-06T15:06:17.030Z,3.50
2023-03-06T15:08:48.052Z,3.60
2023-03-06T15:11:14.973Z,3.60
2023-03-06T15:13:43.206Z,3.50
2023-03-06T15:16:24.844Z,3.70
2023-03-06T15:18:56.743Z,3.60
2023-03-06T15:21:25.190Z,3.70
2023-03-06T15:23:53.139Z,3.70
2023-03-06T15:26:24.803Z,3.70
2023-03-06T15:29:07.047Z,3.70
2023-03-06T15:31:36.605Z,3.70
2023-03-06T15:34:21.693Z,3.70
2023-03-06T15:36:50.097Z,3.60
2023-03-06T15:40:00.713Z,3.60
2023-03-06T15:42:27.627Z,3.60
2023-03-06T15:45:14.767Z,3.60
2023-03-06T15:47:41.814Z,3.60
2023-03-06T15:50:14.994Z,3.60
2023-03-06T15:52:41.787Z,3.60
2023-03-06T15:55:10.835Z,3.60
2023-03-06T15:57:38.073Z,3.60
2023-03-06T16:00:26.637Z,3.60
2023-03-06T16:02:54.949Z,3.60
2023-03-06T16:05:23.166Z,3.60
2023-03-06T16:07:50.176Z,3.50
2023-03-06T16:10:18.543Z,3.60
2023-03-06T16:12:49.690Z,3.50
2023-03-06T16:15:20.846Z,3.50
2023-03-06T16:17:48.167Z,3.50
2023-03-06T16:20:16.055Z,3.50
2023-03-06T16:22:43.030Z,3.60
2023-03-06T16:25:10.050Z,3.50
2023-03-06T16:27:36.947Z,3.50
2023-03-06T16:30:04.731Z,3.50
2023-03-06T16:32:33.221Z,3.60
2023-03-06T16:34:59.990Z,3.50
2023-03-06T16:37:26.820Z,3.50
2023-03-06T16:39:53.544Z,3.60
2023-03-06T16:42:20.391Z,3.60
2023-03-06T16:44:47.123Z,3.50
2023-03-06T16:47:13.879Z,3.60
2023-03-06T16:49:42.056Z,3.50
2023-03-06T16:52:10.651Z,3.50
2023-03-06T16:54:37.423Z,3.50
2023-03-06T16:57:04.188Z,3.50
2023-03-06T16:59:30.957Z,3.50
2023-03-06T17:01:57.710Z,3.50
2023-03-06T17:04:24.451Z,3.50
2023-03-06T17:06:52.598Z,3.50
2023-03-06T17:09:19.353Z,3.50
2023-03-06T17:11:46.103Z,3.50
2023-03-06T17:14:14.899Z,3.50
2023-03-06T17:16:41.628Z,3.50
2023-03-06T17:19:11.440Z,3.50
2023-03-06T17:21:38.184Z,3.50
2023-03-06T17:24:06.909Z,3.40
2023-03-06T17:26:34.169Z,3.40
2023-03-06T17:29:00.895Z,3.40
2023-03-06T17:31:28.437Z,3.40
2023-03-06T17:33:56.529Z,3.40
2023-03-06T17:36:23.291Z,3.40
2023-03-06T17:38:50.094Z,3.40
2023-03-06T17:41:19.611Z,3.40
2023-03-06T17:43:46.361Z,3.30
2023-03-06T17:46:13.146Z,3.40
2023-03-06T17:48:40.165Z,3.30
2023-03-06T17:51:07.561Z,3.30
2023-03-06T17:53:34.724Z,3.30
2023-03-06T17:56:03.124Z,3.30
2023-03-06T17:58:31.569Z,3.30
2023-03-06T18:00:58.375Z,3.30
2023-03-06T18:03:25.346Z,3.30
2023-03-06T18:05:59.591Z,3.30
2023-03-06T18:08:26.436Z,3.30
2023-03-06T18:10:58.880Z,3.30
2023-03-06T18:13:26.220Z,3.20
2023-03-06T18:15:54.719Z,3.20
2023-03-06T18:18:22.452Z,3.20
2023-03-06T18:20:49.695Z,3.20
2023-03-06T18:23:16.950Z,3.20
2023-03-06T18:25:44.596Z,3.20
2023-03-06T18:28:11.744Z,3.20
2023-03-06T18:30:40.904Z,3.20
2023-03-06T18:33:10.277Z,3.20
2023-03-06T18:35:37.381Z,3.20
2023-03-06T18:38:04.466Z,3.20
2023-03-06T18:40:31.622Z,3.20
2023-03-06T18:42:58.641Z,3.20
2023-03-06T18:45:25.724Z,3.20
2023-03-06T18:47:52.743Z,3.20
2023-03-06T18:50:21.475Z,3.20
2023-03-06T18:52:49.494Z,3.20
2023-03-06T18:55:16.490Z,3.20
2023-03-06T18:57:43.249Z,3.10
2023-03-06T19:00:11.167Z,3.10
2023-03-06T19:02:38.042Z,3.10
2023-03-06T19:05:05.344Z,3.10
2023-03-06T19:07:33.442Z,3.10
2023-03-06T19:10:00.204Z,3.10
2023-03-06T19:12:27.460Z,3.10
2023-03-06T19:14:54.170Z,3.10
2023-03-06T19:17:20.918Z,3.00
2023-03-06T19:19:49.641Z,3.00
2023-03-06T19:22:16.490Z,3.00
2023-03-06T19:24:44.570Z,3.00
2023-03-06T19:27:11.301Z,3.00
2023-03-06T19:29:38.512Z,3.00
2023-03-06T19:32:06.653Z,3.00
2023-03-06T19:34:33.476Z,3.00
2023-03-06T19:37:00.220Z,3.00
2023-03-06T19:39:27.031Z,3.00
2023-03-06T19:41:55.154Z,3.00
2023-03-06T19:44:21.876Z,3.00
2023-03-06T19:46:48.596Z,2.90
2023-03-06T19:49:16.296Z,2.90
2023-03-06T19:51:43.026Z,2.90
2023-03-06T19:54:10.915Z,2.90
2023-03-06T19:56:37.896Z,2.90
2023-03-06T19:59:06.062Z,2.90
2023-03-06T20:01:33.001Z,2.90
2023-03-06T20:04:00.084Z,2.90
2023-03-06T20:06:29.380Z,2.90
2023-03-06T20:08:56.144Z,2.90
2023-03-06T20:11:24.787Z,2.90
2023-03-06T20:13:52.453Z,2.90
2023-03-06T20:16:20.868Z,2.90
2023-03-06T20:18:48.031Z,2.80
2023-03-06T20:21:15.619Z,2.90
2023-03-06T20:23:42.692Z,2.80
2023-03-06T20:26:11.556Z,2.90
2023-03-06T20:28:39.501Z,2.90
2023-03-06T20:31:07.499Z,2.90
2023-03-06T20:33:35.688Z,2.90
2023-03-06T20:36:02.823Z,2.90
2023-03-06T20:38:29.663Z,2.90
2023-03-06T20:40:56.417Z,2.90
2023-03-06T20:43:23.286Z,2.80
2023-03-06T20:45:56.650Z,2.80
2023-03-06T20:48:23.404Z,2.80
2023-03-06T20:51:03.504Z,2.80
2023-03-06T20:53:31.007Z,2.80
2023-03-06T20:55:57.897Z,2.80
2023-03-06T20:58:24.733Z,2.80
2023-03-06T21:00:51.657Z,2.80
2023-03-06T21:03:18.396Z,2.80
2023-03-06T21:05:46.107Z,2.80
2023-03-06T21:08:14.504Z,2.80
2023-03-06T21:10:41.552Z,2.80
2023-03-06T21:13:08.297Z,2.80
2023-03-06T21:15:38.115Z,2.80
2023-03-06T21:18:05.065Z,2.80
2023-03-06T21:20:32.097Z,2.70
2023-03-06T21:22:58.867Z,2.70
2023-03-06T21:25:26.965Z,2.80
2023-03-06T21:27:54.100Z,2.70
2023-03-06T21:30:21.048Z,2.80
2023-03-06T21:32:47.782Z,2.80
2023-03-06T21:35:14.517Z,2.80
2023-03-06T21:37:41.251Z,2.80
2023-03-06T21:40:09.707Z,2.80
2023-03-06T21:42:37.769Z,2.80
2023-03-06T21:45:05.533Z,2.80
2023-03-06T21:47:32.269Z,2.80
2023-03-06T21:49:59.124Z,2.80
2023-03-06T21:52:26.625Z,2.90
2023-03-06T21:54:53.477Z,2.90
2023-03-06T21:57:20.195Z,2.90
2023-03-06T21:59:48.314Z,2.90
2023-03-06T22:02:15.046Z,2.90
2023-03-06T22:04:41.797Z,2.90
2023-03-06T22:07:08.558Z,2.90
2023-03-06T22:09:35.629Z,2.90
2023-03-06T22:12:02.548Z,2.90
2023-03-06T22:14:29.394Z,2.90
2023-03-06T22:16:57.636Z,2.90
2023-03-06T22:19:24.569Z,2.90
2023-03-06T22:21:51.318Z,3.00
2023-03-06T22:24:18.058Z,3.00
2023-03-06T22:26:44.859Z,2.90
2023-03-06T22:29:11.615Z,2.90
2023-03-06T22:31:40.282Z,2.90
2023-03-06T22:34:09.946Z,2.90
2023-03-06T22:36:36.705Z,2.90
2023-03-06T22:39:03.922Z,2.90
2023-03-06T22:41:30.960Z,2.90
2023-03-06T22:43:58.398Z,2.90
2023-03-06T22:46:26.089Z,2.90
2023-03-06T22:48:52.963Z,2.90
2023-03-06T22:51:21.301Z,2.80
2023-03-06T22:53:48.739Z,2.90
2023-03-06T22:56:18.645Z,2.80
2023-03-06T22:58:45.861Z,2.80
2023-03-06T23:01:14.376Z,2.80
2023-03-06T23:03:42.912Z,2.80
2023-03-06T23:06:12.075Z,2.80
2023-03-06T23:08:40.648Z,2.90
2023-03-06T23:11:11.345Z,2.80
2023-03-06T23:13:38.454Z,2.80
2023-03-06T23:16:05.986Z,2.80
2023-03-06T23:18:33.444Z,2.80
2023-03-06T23:21:00.253Z,2.80
2023-03-06T23:23:27.207Z,2.80
2023-03-06T23:25:58.840Z,2.70
2023-03-06T23:28:25.622Z,2.80
2023-03-06T23:30:52.686Z,2.80
2023-03-06T23:33:19.636Z,2.80
2023-03-06T23:35:46.553Z,2.90
2023-03-06T23:38:13.812Z,2.90
2023-03-06T23:40:40.825Z,2.80
2023-03-06T23:43:09.039Z,2.80
2023-03-06T23:45:35.823Z,2.80
2023-03-06T23:48:02.591Z,2.80
2023-03-06T23:50:29.312Z,2.80
2023-03-06T23:52:56.188Z,2.80
2023-03-06T23:55:22.933Z,2.80
2023-03-06T23:57:49.671Z,2.80
